createdAt,value
2022-08-31T00:01:00.437Z,7.60
2022-08-31T00:03:46.218Z,5.30
2022-08-31T00:06:14.987Z,5.25
2022-08-31T00:08:43.493Z,4.18
2022-08-31T00:11:14.334Z,6.05
2022-08-31T00:13:44.144Z,5.88
2022-08-31T00:16:14.234Z,6.65
2022-08-31T00:18:42.592Z,3.10
2022-08-31T00:21:11.238Z,5.68
2022-08-31T00:23:39.731Z,5.30
2022-08-31T00:26:08.358Z,6.93
2022-08-31T00:28:36.832Z,5.97
2022-08-31T00:31:05.346Z,5.88
2022-08-31T00:33:37.106Z,6.25
2022-08-31T00:36:06.994Z,4.78
2022-08-31T00:38:35.475Z,5.15
2022-08-31T00:41:03.956Z,4.13
2022-08-31T00:43:43.007Z,3.72
2022-08-31T00:46:16.582Z,4.80
2022-08-31T00:48:52.476Z,3.72
2022-08-31T00:51:21.297Z,5.82
2022-08-31T00:53:50.875Z,3.92
2022-08-31T00:56:20.834Z,5.57
2022-08-31T00:58:54.876Z,8.55
2022-08-31T01:01:24.403Z,4.60
2022-08-31T01:04:05.885Z,5.00
2022-08-31T01:06:35.453Z,5.25
2022-08-31T01:09:06.835Z,4.82
2022-08-31T01:11:36.882Z,4.90
2022-08-31T01:14:05.622Z,5.68
2022-08-31T01:16:38.993Z,4.90
2022-08-31T01:19:18.295Z,4.20
2022-08-31T01:21:53.957Z,3.85
2022-08-31T01:24:26.309Z,3.67
2022-08-31T01:27:03.179Z,4.75
2022-08-31T01:29:32.798Z,4.00
2022-08-31T01:32:01.377Z,5.70
2022-08-31T01:34:30.003Z,4.93
2022-08-31T01:36:59.388Z,4.75
2022-08-31T01:39:29.745Z,7.15
2022-08-31T01:41:58.253Z,4.38
2022-08-31T01:44:28.286Z,4.93
2022-08-31T01:46:57.548Z,4.38
2022-08-31T01:49:28.330Z,7.25
2022-08-31T01:51:56.837Z,5.60
2022-08-31T01:54:27.717Z,6.38
2022-08-31T01:56:57.761Z,5.30
2022-08-31T01:59:49.142Z,4.07
2022-08-31T02:02:37.492Z,5.90
2022-08-31T02:05:06.866Z,6.35
2022-08-31T02:07:35.660Z,4.63
2022-08-31T02:10:05.953Z,5.75
2022-08-31T02:12:35.634Z,4.78
2022-08-31T02:15:04.714Z,5.55
2022-08-31T02:17:33.268Z,5.15
2022-08-31T02:20:01.640Z,5.43
2022-08-31T02:22:29.992Z,4.22
2022-08-31T02:24:59.983Z,5.75
2022-08-31T02:27:29.204Z,4.03
2022-08-31T02:29:59.779Z,3.65
2022-08-31T02:32:29.140Z,4.03
2022-08-31T02:34:59.462Z,4.88
2022-08-31T02:37:27.967Z,4.85
2022-08-31T02:39:58.603Z,4.63
2022-08-31T02:42:33.051Z,5.13
2022-08-31T02:45:17.157Z,6.03
2022-08-31T02:47:46.171Z,4.47
2022-08-31T02:50:35.385Z,5.88
2022-08-31T02:53:03.797Z,6.00
2022-08-31T02:55:32.547Z,4.22
2022-08-31T02:58:02.200Z,6.20
2022-08-31T03:00:32.661Z,3.55
2022-08-31T03:03:01.786Z,4.05
2022-08-31T03:05:31.052Z,5.82
2022-08-31T03:07:59.532Z,3.50
2022-08-31T03:10:28.205Z,4.22
2022-08-31T03:12:57.616Z,3.92
2022-08-31T03:15:28.745Z,6.18
2022-08-31T03:18:06.677Z,5.03
2022-08-31T03:20:36.301Z,4.95
2022-08-31T03:23:07.626Z,4.63
2022-08-31T03:25:38.156Z,5.05
2022-08-31T03:28:11.211Z,5.78
2022-08-31T03:30:43.286Z,4.78
2022-08-31T03:33:15.820Z,4.68
2022-08-31T03:35:46.092Z,3.95
2022-08-31T03:38:16.815Z,5.95
2022-08-31T03:40:46.502Z,7.45
2022-08-31T03:43:15.947Z,5.32
2022-08-31T03:45:45.472Z,5.57
2022-08-31T03:48:15.413Z,4.43
2022-08-31T03:50:46.314Z,5.07
2022-08-31T03:53:27.502Z,4.88
2022-08-31T03:56:01.994Z,6.57
2022-08-31T03:58:33.671Z,5.43
2022-08-31T04:01:02.840Z,5.90
2022-08-31T04:03:55.967Z,3.78
2022-08-31T04:06:45.208Z,4.07
2022-08-31T04:09:32.310Z,4.30
2022-08-31T04:12:30.162Z,4.18
2022-08-31T04:15:11.404Z,6.35
2022-08-31T04:17:59.230Z,6.05
2022-08-31T04:20:49.970Z,5.47
2022-08-31T04:23:19.108Z,4.88
2022-08-31T04:25:54.545Z,7.15
2022-08-31T04:28:23.043Z,6.50
2022-08-31T04:30:51.720Z,6.30
2022-08-31T04:33:21.916Z,5.10
2022-08-31T04:35:51.622Z,4.80
2022-08-31T04:38:21.945Z,5.43
2022-08-31T04:40:52.512Z,4.57
2022-08-31T04:43:21.283Z,6.35
2022-08-31T04:45:53.103Z,5.53
2022-08-31T04:48:21.945Z,6.07
2022-08-31T04:50:51.735Z,6.45
2022-08-31T04:53:20.646Z,4.05
2022-08-31T04:55:49.122Z,5.20
2022-08-31T04:58:20.753Z,5.43
2022-08-31T05:00:49.141Z,5.00
2022-08-31T05:03:33.012Z,6.30
2022-08-31T05:06:02.889Z,7.05
2022-08-31T05:08:31.478Z,6.22
2022-08-31T05:11:00.841Z,5.63
2022-08-31T05:13:29.698Z,5.28
2022-08-31T05:15:59.045Z,5.28
2022-08-31T05:18:27.714Z,6.55
2022-08-31T05:20:59.533Z,9.35
2022-08-31T05:23:30.134Z,5.10
2022-08-31T05:25:58.908Z,6.43
2022-08-31T05:28:28.342Z,5.85
2022-08-31T05:30:57.859Z,6.93
2022-08-31T05:33:39.239Z,5.82
2022-08-31T05:36:09.382Z,5.88
2022-08-31T05:38:42.379Z,5.38
2022-08-31T05:41:13.038Z,5.80
2022-08-31T05:43:42.115Z,7.07
2022-08-31T05:46:13.407Z,4.75
2022-08-31T05:48:42.352Z,8.23
2022-08-31T05:51:19.802Z,4.70
2022-08-31T05:53:51.217Z,5.65
2022-08-31T05:56:23.455Z,6.60
2022-08-31T05:58:54.891Z,6.15
2022-08-31T06:01:25.329Z,6.07
2022-08-31T06:04:06.267Z,5.65
2022-08-31T06:06:37.139Z,8.45
2022-08-31T06:09:09.083Z,7.10
2022-08-31T06:11:42.391Z,7.53
2022-08-31T06:14:14.810Z,7.95
2022-08-31T06:16:45.547Z,8.02
2022-08-31T06:19:16.938Z,6.53
2022-08-31T06:21:51.450Z,7.97
2022-08-31T06:24:26.606Z,6.50
2022-08-31T06:26:59.747Z,8.20
2022-08-31T06:29:35.745Z,6.40
2022-08-31T06:32:08.471Z,5.63
2022-08-31T06:34:40.894Z,7.60
2022-08-31T06:37:19.004Z,7.65
2022-08-31T06:39:58.157Z,6.57
2022-08-31T06:42:38.918Z,5.45
2022-08-31T06:45:51.499Z,7.05
2022-08-31T06:48:35.386Z,9.57
2022-08-31T06:51:04.165Z,8.35
2022-08-31T06:53:33.206Z,7.93
2022-08-31T06:56:36.803Z,7.10
2022-08-31T06:59:17.472Z,9.18
2022-08-31T07:02:13.521Z,9.45
2022-08-31T07:04:42.519Z,7.78
2022-08-31T07:07:11.387Z,8.65
2022-08-31T07:09:42.178Z,9.00
2022-08-31T07:12:13.617Z,9.15
2022-08-31T07:14:42.343Z,10.80
2022-08-31T07:17:24.308Z,14.07
2022-08-31T07:19:53.118Z,11.02
2022-08-31T07:22:23.306Z,10.07
2022-08-31T07:24:57.646Z,10.57
2022-08-31T07:27:30.104Z,9.05
2022-08-31T07:30:01.094Z,8.57
2022-08-31T07:32:34.385Z,9.50
2022-08-31T07:35:03.954Z,8.80
2022-08-31T07:37:51.456Z,9.93
2022-08-31T07:40:43.141Z,10.93
2022-08-31T07:43:15.311Z,10.23
2022-08-31T07:45:44.219Z,9.68
2022-08-31T07:48:17.409Z,10.60
2022-08-31T07:50:57.951Z,14.00
2022-08-31T07:53:49.566Z,10.02
2022-08-31T07:56:34.614Z,14.18
2022-08-31T07:59:15.015Z,10.05
2022-08-31T08:01:45.822Z,10.52
2022-08-31T08:04:25.281Z,8.40
2022-08-31T08:07:06.733Z,9.60
2022-08-31T08:10:02.522Z,9.38
2022-08-31T08:12:57.265Z,11.23
2022-08-31T08:15:40.593Z,11.70
2022-08-31T08:18:32.778Z,12.10
2022-08-31T08:21:04.176Z,10.27
2022-08-31T08:23:32.921Z,10.48
2022-08-31T08:26:34.052Z,9.55
2022-08-31T08:29:03.212Z,11.15
2022-08-31T08:31:33.726Z,10.13
2022-08-31T08:34:02.399Z,13.95
2022-08-31T08:36:35.795Z,9.20
2022-08-31T08:39:06.621Z,10.68
2022-08-31T08:41:37.841Z,10.15
2022-08-31T08:44:09.853Z,10.10
2022-08-31T08:46:49.703Z,14.30
2022-08-31T08:49:25.914Z,12.23
2022-08-31T08:51:59.996Z,10.13
2022-08-31T08:54:33.866Z,10.82
2022-08-31T08:57:14.364Z,10.95
2022-08-31T08:59:45.360Z,10.43
2022-08-31T09:02:20.297Z,13.38
2022-08-31T09:05:04.660Z,13.85
2022-08-31T09:08:10.261Z,10.25
2022-08-31T09:10:43.619Z,11.82
2022-08-31T09:13:23.301Z,11.80
2022-08-31T09:16:02.175Z,12.65
2022-08-31T09:18:44.246Z,13.35
2022-08-31T09:21:21.993Z,9.88
2022-08-31T09:24:01.462Z,10.27
2022-08-31T09:26:35.693Z,10.60
2022-08-31T09:29:17.362Z,9.25
2022-08-31T09:31:46.497Z,11.55
2022-08-31T09:34:31.271Z,10.35
2022-08-31T09:37:16.092Z,11.07
2022-08-31T09:39:47.669Z,11.77
2022-08-31T09:42:43.813Z,11.90
2022-08-31T09:45:25.563Z,8.88
2022-08-31T09:48:01.456Z,10.70
2022-08-31T09:50:36.368Z,8.65
2022-08-31T09:53:34.181Z,12.18
2022-08-31T09:56:15.804Z,10.52
2022-08-31T09:58:46.613Z,9.25
2022-08-31T10:01:30.467Z,10.50
2022-08-31T10:04:19.106Z,10.90
2022-08-31T10:06:56.507Z,11.88
2022-08-31T10:09:34.560Z,10.85
2022-08-31T10:12:07.144Z,12.48
2022-08-31T10:14:41.730Z,8.70
2022-08-31T10:17:15.136Z,8.13
2022-08-31T10:19:53.429Z,7.88
2022-08-31T10:22:31.283Z,6.95
2022-08-31T10:25:13.084Z,8.00
2022-08-31T10:27:48.233Z,6.20
2022-08-31T10:30:28.975Z,7.40
2022-08-31T10:33:04.949Z,8.82
2022-08-31T10:35:42.674Z,7.70
2022-08-31T10:38:24.164Z,6.68
2022-08-31T10:41:00.442Z,7.05
2022-08-31T10:43:33.358Z,7.38
2022-08-31T10:46:03.553Z,6.63
2022-08-31T10:48:34.024Z,7.13
2022-08-31T10:51:19.517Z,10.23
2022-08-31T10:54:02.952Z,7.35
2022-08-31T10:56:39.902Z,7.55
2022-08-31T10:59:16.679Z,5.90
2022-08-31T11:01:55.441Z,9.10
2022-08-31T11:04:43.521Z,8.50
2022-08-31T11:07:34.434Z,8.98
2022-08-31T11:10:17.030Z,6.30
2022-08-31T11:12:49.550Z,8.13
2022-08-31T11:15:51.784Z,9.20
2022-08-31T11:18:50.850Z,9.82
2022-08-31T11:22:11.044Z,12.30
2022-08-31T11:25:04.099Z,8.98
2022-08-31T11:27:37.031Z,6.93
2022-08-31T11:30:11.951Z,8.00
2022-08-31T11:32:45.901Z,7.65
2022-08-31T11:35:15.870Z,6.22
2022-08-31T11:37:55.940Z,6.10
2022-08-31T11:41:14.003Z,10.75
2022-08-31T11:43:53.863Z,5.15
2022-08-31T11:47:05.044Z,6.22
2022-08-31T11:49:46.773Z,9.25
2022-08-31T11:52:32.769Z,10.40
2022-08-31T11:55:10.348Z,8.52
2022-08-31T11:58:18.610Z,5.75
2022-08-31T12:01:31.982Z,5.78
2022-08-31T12:04:09.391Z,9.25
2022-08-31T12:07:13.438Z,6.75
2022-08-31T12:10:31.443Z,8.50
2022-08-31T12:13:31.196Z,6.75
2022-08-31T12:16:22.856Z,8.35
2022-08-31T12:19:43.757Z,5.97
2022-08-31T12:22:44.724Z,6.80
2022-08-31T12:25:25.260Z,4.50
2022-08-31T12:28:05.699Z,6.40
2022-08-31T12:30:34.083Z,5.50
2022-08-31T12:33:09.565Z,6.22
2022-08-31T12:35:39.060Z,7.47
2022-08-31T12:38:10.085Z,8.30
2022-08-31T12:40:45.114Z,7.07
2022-08-31T12:43:18.128Z,6.60
2022-08-31T12:46:16.427Z,5.05
2022-08-31T12:49:21.783Z,7.32
2022-08-31T12:51:55.752Z,5.80
2022-08-31T12:54:58.152Z,6.78
2022-08-31T12:57:39.588Z,6.38
2022-08-31T13:00:15.785Z,4.25
2022-08-31T13:02:47.085Z,6.35
2022-08-31T13:05:22.187Z,5.35
2022-08-31T13:07:51.054Z,6.53
2022-08-31T13:10:30.732Z,7.65
2022-08-31T13:13:01.668Z,5.22
2022-08-31T13:15:37.288Z,7.43
2022-08-31T13:18:11.840Z,7.15
2022-08-31T13:20:44.313Z,6.63
2022-08-31T13:23:19.766Z,6.63
2022-08-31T13:26:01.139Z,6.38
2022-08-31T13:28:31.112Z,5.30
2022-08-31T13:31:03.539Z,6.25
2022-08-31T13:33:35.028Z,8.88
2022-08-31T13:36:09.797Z,10.77
2022-08-31T13:38:53.208Z,6.25
2022-08-31T13:41:27.405Z,6.78
2022-08-31T13:44:02.774Z,6.57
2022-08-31T13:46:42.955Z,7.85
2022-08-31T13:49:29.779Z,4.72
2022-08-31T13:52:00.088Z,3.90
2022-08-31T13:54:32.189Z,6.57
2022-08-31T13:57:12.024Z,4.20
2022-08-31T13:59:42.008Z,5.57
2022-08-31T14:02:36.971Z,4.55
2022-08-31T14:05:08.718Z,5.03
2022-08-31T14:08:07.216Z,7.05
2022-08-31T14:10:38.683Z,5.28
2022-08-31T14:13:18.298Z,9.00
2022-08-31T14:15:56.567Z,5.18
2022-08-31T14:18:29.575Z,4.82
2022-08-31T14:21:21.508Z,4.53
2022-08-31T14:23:53.775Z,5.72
2022-08-31T14:26:29.079Z,4.78
2022-08-31T14:29:01.068Z,6.18
2022-08-31T14:31:36.653Z,5.00
2022-08-31T14:34:23.358Z,3.65
2022-08-31T14:36:55.274Z,6.32
2022-08-31T14:39:31.273Z,4.68
2022-08-31T14:42:02.475Z,4.28
2022-08-31T14:44:33.510Z,4.95
2022-08-31T14:47:05.968Z,4.00
2022-08-31T14:49:36.507Z,6.43
2022-08-31T14:52:06.824Z,4.80
2022-08-31T14:54:37.900Z,4.25
2022-08-31T14:57:12.545Z,4.35
2022-08-31T14:59:44.749Z,4.97
2022-08-31T15:02:21.287Z,4.15
2022-08-31T15:04:50.290Z,4.68
2022-08-31T15:07:19.874Z,6.85
2022-08-31T15:09:50.194Z,6.07
2022-08-31T15:12:19.284Z,5.38
2022-08-31T15:14:48.099Z,4.57
2022-08-31T15:17:19.771Z,3.45
2022-08-31T15:19:53.060Z,4.35
2022-08-31T15:22:21.661Z,5.63
2022-08-31T15:24:51.445Z,5.25
2022-08-31T15:27:20.737Z,4.05
2022-08-31T15:29:51.027Z,4.53
2022-08-31T15:32:31.603Z,10.50
2022-08-31T15:35:00.776Z,4.55
2022-08-31T15:37:33.309Z,5.05
2022-08-31T15:40:07.246Z,5.80
2022-08-31T15:42:39.607Z,6.25
2022-08-31T15:45:09.699Z,4.80
2022-08-31T15:47:57.898Z,12.77
2022-08-31T15:50:32.180Z,3.78
2022-08-31T15:53:09.240Z,3.97
2022-08-31T15:55:41.361Z,4.25
2022-08-31T15:58:10.501Z,3.80
2022-08-31T16:00:41.810Z,5.70
2022-08-31T16:03:11.071Z,5.07
2022-08-31T16:05:39.965Z,7.45
2022-08-31T16:08:11.248Z,5.85
2022-08-31T16:10:44.415Z,4.18
2022-08-31T16:13:13.455Z,8.50
2022-08-31T16:15:41.758Z,5.30
2022-08-31T16:18:11.308Z,5.88
2022-08-31T16:20:41.097Z,5.93
2022-08-31T16:23:10.063Z,5.25
2022-08-31T16:25:47.617Z,6.03
2022-08-31T16:28:20.006Z,4.80
2022-08-31T16:30:48.919Z,6.80
2022-08-31T16:33:20.298Z,4.32
2022-08-31T16:35:48.860Z,4.53
2022-08-31T16:38:17.670Z,5.43
2022-08-31T16:40:46.518Z,3.88
2022-08-31T16:43:15.291Z,5.78
2022-08-31T16:45:45.260Z,4.13
2022-08-31T16:48:33.754Z,5.85
2022-08-31T16:51:02.736Z,5.45
2022-08-31T16:53:32.816Z,4.10
2022-08-31T16:56:04.309Z,3.75
2022-08-31T16:58:51.071Z,7.25
2022-08-31T17:01:25.516Z,4.82
2022-08-31T17:03:56.835Z,4.45
2022-08-31T17:06:27.416Z,4.47
2022-08-31T17:08:57.391Z,5.35
2022-08-31T17:11:28.595Z,6.28
2022-08-31T17:13:59.183Z,4.75
2022-08-31T17:16:34.740Z,5.15
2022-08-31T17:19:07.498Z,9.40
2022-08-31T17:21:46.091Z,5.38
2022-08-31T17:24:16.064Z,5.53
2022-08-31T17:26:45.998Z,4.15
2022-08-31T17:29:17.737Z,4.72
2022-08-31T17:31:48.051Z,3.08
2022-08-31T17:34:20.003Z,3.72
2022-08-31T17:36:51.328Z,4.78
2022-08-31T17:39:21.188Z,5.00
2022-08-31T17:41:51.519Z,4.15
2022-08-31T17:44:26.427Z,6.75
2022-08-31T17:46:56.810Z,4.95
2022-08-31T17:49:27.908Z,8.77
2022-08-31T17:51:57.799Z,4.00
2022-08-31T17:54:32.653Z,6.35
2022-08-31T17:57:03.490Z,10.80
2022-08-31T17:59:36.799Z,6.75
2022-08-31T18:02:10.867Z,7.15
2022-08-31T18:07:31.387Z,4.57
2022-08-31T18:10:02.124Z,6.13
2022-08-31T18:12:32.312Z,5.10
2022-08-31T18:15:00.838Z,3.95
2022-08-31T18:17:30.948Z,5.93
2022-08-31T18:19:59.573Z,5.07
2022-08-31T18:22:30.807Z,4.45
2022-08-31T18:25:02.523Z,6.50
2022-08-31T18:27:31.006Z,5.03
2022-08-31T18:30:00.723Z,4.72
2022-08-31T18:32:36.190Z,6.43
2022-08-31T18:35:10.448Z,5.70
2022-08-31T18:37:39.037Z,4.55
2022-08-31T18:40:26.894Z,4.40
2022-08-31T18:43:14.327Z,5.53
2022-08-31T18:45:43.188Z,5.43
2022-08-31T18:48:28.369Z,8.60
2022-08-31T18:50:58.849Z,5.18
2022-08-31T18:53:30.368Z,4.72
2022-08-31T18:56:05.711Z,6.35
2022-08-31T18:58:35.982Z,7.13
2022-08-31T19:01:10.317Z,9.40
2022-08-31T19:03:41.098Z,5.35
2022-08-31T19:06:17.780Z,7.88
2022-08-31T19:08:46.502Z,6.82
2022-08-31T19:11:20.118Z,6.90
2022-08-31T19:13:51.194Z,6.35
2022-08-31T19:16:22.120Z,4.97
2022-08-31T19:18:56.262Z,5.22
2022-08-31T19:21:27.883Z,7.57
2022-08-31T19:23:56.791Z,8.38
2022-08-31T19:26:31.445Z,5.53
2022-08-31T19:29:00.340Z,5.78
2022-08-31T19:31:30.144Z,8.93
2022-08-31T19:34:00.089Z,6.30
2022-08-31T19:36:28.766Z,7.85
2022-08-31T19:38:57.520Z,6.07
2022-08-31T19:41:27.735Z,7.05
2022-08-31T19:44:09.017Z,6.18
2022-08-31T19:46:38.709Z,5.68
2022-08-31T19:49:11.020Z,7.53
2022-08-31T19:51:41.779Z,5.85
2022-08-31T19:54:12.178Z,5.60
2022-08-31T19:56:42.928Z,5.50
2022-08-31T19:59:13.162Z,5.63
2022-08-31T20:01:41.860Z,5.20
2022-08-31T20:04:16.732Z,7.38
2022-08-31T20:06:46.290Z,5.93
2022-08-31T20:09:15.286Z,5.95
2022-08-31T20:11:47.479Z,4.28
2022-08-31T20:14:16.985Z,6.10
2022-08-31T20:16:46.483Z,5.22
2022-08-31T20:19:24.947Z,4.75
2022-08-31T20:21:54.712Z,5.70
2022-08-31T20:24:26.756Z,5.18
2022-08-31T20:26:59.827Z,5.32
2022-08-31T20:29:30.640Z,4.57
2022-08-31T20:32:02.114Z,6.93
2022-08-31T20:34:31.878Z,7.80
2022-08-31T20:37:01.424Z,5.30
2022-08-31T20:39:32.390Z,4.95
2022-08-31T20:42:03.154Z,5.10
2022-08-31T20:44:34.673Z,4.07
2022-08-31T20:47:22.690Z,4.63
2022-08-31T20:49:56.557Z,4.55
2022-08-31T20:52:27.323Z,5.00
2022-08-31T20:55:01.287Z,5.82
2022-08-31T20:57:32.187Z,8.07
2022-08-31T21:00:03.870Z,4.22
2022-08-31T21:02:34.341Z,6.25
2022-08-31T21:05:36.570Z,5.53
2022-08-31T21:07:57.381Z,4.68
2022-08-31T21:10:36.148Z,4.68
2022-08-31T21:13:08.127Z,6.47
2022-08-31T21:15:40.954Z,5.30
2022-08-31T21:18:09.324Z,3.63
2022-08-31T21:20:39.248Z,3.67
2022-08-31T21:23:09.752Z,5.30
2022-08-31T21:25:43.912Z,5.30
2022-08-31T21:28:15.706Z,4.35
2022-08-31T21:30:46.698Z,4.95
2022-08-31T21:33:15.182Z,4.57
2022-08-31T21:35:45.166Z,4.65
2022-08-31T21:38:13.648Z,4.18
2022-08-31T21:40:49.283Z,4.85
2022-08-31T21:43:17.874Z,4.93
2022-08-31T21:45:46.466Z,3.80
2022-08-31T21:48:15.246Z,5.68
2022-08-31T21:50:45.551Z,5.18
2022-08-31T21:53:13.931Z,5.10
2022-08-31T21:55:42.207Z,4.22
2022-08-31T21:58:11.135Z,5.25
2022-08-31T22:00:42.147Z,3.90
2022-08-31T22:03:12.851Z,3.88
2022-08-31T22:05:43.524Z,4.65
2022-08-31T22:08:13.420Z,5.00
2022-08-31T22:10:44.026Z,4.50
2022-08-31T22:13:13.966Z,6.93
2022-08-31T22:15:43.410Z,5.88
2022-08-31T22:18:58.250Z,4.00
2022-08-31T22:21:00.906Z,3.53
2022-08-31T22:23:31.448Z,3.95
2022-08-31T22:25:59.858Z,3.30
2022-08-31T22:28:28.317Z,5.50
2022-08-31T22:30:56.960Z,4.65
2022-08-31T22:33:25.419Z,5.78
2022-08-31T22:35:53.865Z,3.65
2022-08-31T22:38:22.379Z,3.53
2022-08-31T22:40:52.532Z,4.35
2022-08-31T22:43:21.128Z,4.43
2022-08-31T22:45:51.287Z,4.30
2022-08-31T22:48:19.757Z,4.13
2022-08-31T22:50:48.432Z,4.88
2022-08-31T22:53:16.837Z,4.03
2022-08-31T22:55:45.234Z,6.45
2022-08-31T22:58:15.059Z,3.75
2022-08-31T23:00:46.224Z,3.97
2022-08-31T23:03:15.190Z,3.47
2022-08-31T23:05:44.006Z,3.92
2022-08-31T23:08:13.955Z,3.90
2022-08-31T23:10:42.964Z,3.88
2022-08-31T23:13:11.504Z,3.75
2022-08-31T23:15:41.669Z,4.13
2022-08-31T23:18:10.604Z,3.83
2022-08-31T23:20:41.849Z,3.03
2022-08-31T23:23:11.091Z,3.20
2022-08-31T23:25:40.560Z,4.25
2022-08-31T23:28:09.524Z,4.82
2022-08-31T23:30:38.344Z,2.85
2022-08-31T23:33:08.004Z,5.47
2022-08-31T23:35:37.370Z,7.30
2022-08-31T23:38:05.707Z,3.25
2022-08-31T23:40:34.322Z,5.72
2022-08-31T23:43:04.703Z,4.97
2022-08-31T23:45:33.812Z,3.17
2022-08-31T23:48:02.532Z,3.20
2022-08-31T23:50:32.380Z,3.47
2022-08-31T23:53:00.707Z,3.47
2022-08-31T23:55:30.208Z,4.40
2022-08-31T23:57:59.333Z,3.92
